LNI963 WIMM-WAHI
Flight info
| Callsign | LNI963 |
|---|---|
| Flight time | N/A |
| Altitude | 35000 |
| Route | OMBES1A OMBES T5 HLM W17 CLP CLP2H |
| Aircraft | B739/M-SDE2E3FGHIRWXY/LB1 |
Departure
| Time | 2026-04-26 04:24 |
|---|---|
| Airport | Kualanamu International Airport (WIMM) |
Arrival
| Time | N/A |
|---|---|
| Airport | Yogyakarta International Airport (WAHI) |
| Time | Latitude | Longitude | Altitude | Speed | Heading |
|---|---|---|---|---|---|
| 2026-04-26 03:58 | 3.63508 | 98.88220 | 39 ft | 0 kts | 225° |
| 2026-04-26 04:14 | 3.63519 | 98.88231 | 39 ft | 2 kts | 226° |
| 2026-04-26 04:14 | 3.63531 | 98.88243 | 39 ft | 2 kts | 226° |
| 2026-04-26 04:15 | 3.63542 | 98.88255 | 38 ft | 2 kts | 229° |
| 2026-04-26 04:15 | 3.63552 | 98.88268 | 37 ft | 2 kts | 237° |
| 2026-04-26 04:15 | 3.63558 | 98.88284 | 36 ft | 2 kts | 289° |
| 2026-04-26 04:15 | 3.63553 | 98.88293 | 38 ft | 1 kts | 313° |
| 2026-04-26 04:16 | 3.63552 | 98.88293 | 38 ft | 0 kts | 314° |
| 2026-04-26 04:18 | 3.63553 | 98.88293 | 38 ft | 1 kts | 314° |
| 2026-04-26 04:18 | 3.63570 | 98.88274 | 39 ft | 8 kts | 314° |
| 2026-04-26 04:18 | 3.63627 | 98.88215 | 39 ft | 14 kts | 316° |
| 2026-04-26 04:18 | 3.63696 | 98.88149 | 39 ft | 13 kts | 317° |
| 2026-04-26 04:19 | 3.63760 | 98.88085 | 39 ft | 13 kts | 313° |
| 2026-04-26 04:19 | 3.63822 | 98.88022 | 39 ft | 13 kts | 316° |
| 2026-04-26 04:19 | 3.63894 | 98.87967 | 39 ft | 15 kts | 347° |
| 2026-04-26 04:19 | 3.63987 | 98.88023 | 39 ft | 18 kts | 46° |
| 2026-04-26 04:20 | 3.64083 | 98.88121 | 39 ft | 21 kts | 45° |
| 2026-04-26 04:20 | 3.64195 | 98.88201 | 39 ft | 20 kts | 353° |
| 2026-04-26 04:20 | 3.64283 | 98.88123 | 39 ft | 17 kts | 316° |
| 2026-04-26 04:20 | 3.64364 | 98.88044 | 39 ft | 16 kts | 315° |
| 2026-04-26 04:21 | 3.64445 | 98.87987 | 38 ft | 13 kts | 11° |
| 2026-04-26 04:21 | 3.64516 | 98.88039 | 38 ft | 13 kts | 45° |
| 2026-04-26 04:21 | 3.64577 | 98.88100 | 38 ft | 12 kts | 45° |
| 2026-04-26 04:21 | 3.64646 | 98.88168 | 38 ft | 16 kts | 45° |
| 2026-04-26 04:22 | 3.64722 | 98.88244 | 38 ft | 15 kts | 44° |
| 2026-04-26 04:22 | 3.64797 | 98.88314 | 38 ft | 14 kts | 32° |
| 2026-04-26 04:22 | 3.64895 | 98.88321 | 36 ft | 15 kts | 332° |
| 2026-04-26 04:22 | 3.64960 | 98.88247 | 34 ft | 12 kts | 296° |
| 2026-04-26 04:23 | 3.64923 | 98.88190 | 34 ft | 10 kts | 223° |
| 2026-04-26 04:23 | 3.64856 | 98.88125 | 35 ft | 21 kts | 224° |
| 2026-04-26 04:23 | 3.64653 | 98.87922 | 36 ft | 71 kts | 225° |
| 2026-04-26 04:23 | 3.64105 | 98.87376 | 34 ft | 148 kts | 225° |
| 2026-04-26 04:24 | 3.63203 | 98.86497 | 94 ft | 204 kts | 221° |
| 2026-04-26 04:24 | 3.62103 | 98.85464 | 603 ft | 230 kts | 221° |
| 2026-04-26 04:24 | 3.60863 | 98.84375 | 1259 ft | 246 kts | 218° |
| 2026-04-26 04:24 | 3.59464 | 98.83322 | 2112 ft | 259 kts | 208° |
| 2026-04-26 04:25 | 3.57736 | 98.82665 | 2694 ft | 270 kts | 188° |
| 2026-04-26 04:25 | 3.55795 | 98.82570 | 3218 ft | 285 kts | 174° |
| 2026-04-26 04:25 | 3.53814 | 98.82938 | 3679 ft | 299 kts | 160° |
| 2026-04-26 04:25 | 3.51888 | 98.83875 | 4191 ft | 313 kts | 147° |
| 2026-04-26 04:26 | 3.50140 | 98.85162 | 4943 ft | 313 kts | 139° |
| 2026-04-26 04:26 | 3.48567 | 98.86654 | 5843 ft | 314 kts | 134° |
| 2026-04-26 04:26 | 3.47011 | 98.88240 | 6340 ft | 324 kts | 133° |
| 2026-04-26 04:26 | 3.45483 | 98.89873 | 7216 ft | 317 kts | 131° |
| 2026-04-26 04:27 | 3.44038 | 98.91516 | 8125 ft | 310 kts | 130° |
| 2026-04-26 04:27 | 3.42650 | 98.93092 | 9246 ft | 294 kts | 131° |
| 2026-04-26 04:27 | 3.41276 | 98.94559 | 10188 ft | 287 kts | 133° |
| 2026-04-26 04:27 | 3.39850 | 98.95998 | 10531 ft | 300 kts | 134° |
| 2026-04-26 04:28 | 3.38300 | 98.97493 | 10663 ft | 319 kts | 135° |
| 2026-04-26 04:28 | 3.36633 | 98.99050 | 10796 ft | 336 kts | 136° |
| 2026-04-26 04:28 | 3.34861 | 99.00670 | 10917 ft | 353 kts | 136° |
| 2026-04-26 04:28 | 3.33000 | 99.02347 | 11088 ft | 366 kts | 137° |
| 2026-04-26 04:29 | 3.31082 | 99.04060 | 11475 ft | 371 kts | 137° |
| 2026-04-26 04:29 | 3.29149 | 99.05777 | 12005 ft | 372 kts | 137° |
| 2026-04-26 04:29 | 3.27209 | 99.07498 | 12489 ft | 374 kts | 137° |
| 2026-04-26 04:29 | 3.25254 | 99.09229 | 12923 ft | 377 kts | 137° |
| 2026-04-26 04:30 | 3.23286 | 99.10973 | 13360 ft | 379 kts | 137° |
| 2026-04-26 04:30 | 3.21310 | 99.12724 | 13782 ft | 381 kts | 137° |
| 2026-04-26 04:30 | 3.19321 | 99.14486 | 14147 ft | 383 kts | 137° |
| 2026-04-26 04:30 | 3.17319 | 99.16260 | 14503 ft | 385 kts | 137° |
| 2026-04-26 04:31 | 3.15959 | 99.17466 | 14738 ft | 387 kts | 137° |
| 2026-04-26 04:31 | 3.13282 | 99.19837 | 15200 ft | 390 kts | 137° |
| 2026-04-26 04:31 | 3.11908 | 99.21055 | 15437 ft | 391 kts | 137° |
| 2026-04-26 04:31 | 3.09870 | 99.22860 | 15779 ft | 392 kts | 137° |
| 2026-04-26 04:32 | 3.07821 | 99.24670 | 16109 ft | 394 kts | 138° |
| 2026-04-26 04:32 | 3.05658 | 99.26372 | 16431 ft | 397 kts | 142° |
| 2026-04-26 04:32 | 3.03400 | 99.27970 | 16734 ft | 399 kts | 143° |
| 2026-04-26 04:32 | 3.01132 | 99.29520 | 17023 ft | 401 kts | 143° |
| 2026-04-26 04:33 | 2.98793 | 99.31117 | 17335 ft | 402 kts | 143° |
| 2026-04-26 04:33 | 2.96512 | 99.32688 | 17618 ft | 404 kts | 143° |
| 2026-04-26 04:33 | 2.94203 | 99.34293 | 17896 ft | 406 kts | 143° |
| 2026-04-26 04:33 | 2.91886 | 99.35917 | 18186 ft | 407 kts | 143° |
| 2026-04-26 04:34 | 2.89562 | 99.37552 | 18410 ft | 409 kts | 143° |
| 2026-04-26 04:34 | 2.87233 | 99.39195 | 18638 ft | 410 kts | 143° |
| 2026-04-26 04:34 | 2.84898 | 99.40842 | 18862 ft | 412 kts | 142° |
| 2026-04-26 04:34 | 2.82555 | 99.42496 | 19073 ft | 413 kts | 142° |
| 2026-04-26 04:35 | 2.80205 | 99.44154 | 19280 ft | 414 kts | 142° |
| 2026-04-26 04:35 | 2.77848 | 99.45817 | 19490 ft | 415 kts | 142° |
| 2026-04-26 04:35 | 2.75487 | 99.47483 | 19701 ft | 416 kts | 142° |
| 2026-04-26 04:35 | 2.73118 | 99.49154 | 19887 ft | 417 kts | 142° |
| 2026-04-26 04:36 | 2.70744 | 99.50828 | 20071 ft | 418 kts | 142° |
| 2026-04-26 04:36 | 2.68367 | 99.52505 | 20236 ft | 420 kts | 142° |
| 2026-04-26 04:36 | 2.65977 | 99.54190 | 20417 ft | 421 kts | 142° |
| 2026-04-26 04:36 | 2.63615 | 99.55922 | 20586 ft | 420 kts | 136° |
| 2026-04-26 04:37 | 2.61740 | 99.58134 | 20741 ft | 418 kts | 120° |
| 2026-04-26 04:37 | 2.60287 | 99.60646 | 20946 ft | 417 kts | 118° |
| 2026-04-26 04:37 | 2.58870 | 99.63183 | 21082 ft | 419 kts | 117° |
| 2026-04-26 04:37 | 2.57452 | 99.65734 | 21217 ft | 420 kts | 118° |
| 2026-04-26 04:38 | 2.56022 | 99.68287 | 21369 ft | 421 kts | 118° |
| 2026-04-26 04:38 | 2.54581 | 99.70840 | 21517 ft | 422 kts | 118° |
| 2026-04-26 04:38 | 2.53130 | 99.73395 | 21679 ft | 423 kts | 118° |
| 2026-04-26 04:38 | 2.51671 | 99.75953 | 21794 ft | 424 kts | 118° |
| 2026-04-26 04:39 | 2.50205 | 99.78517 | 21931 ft | 425 kts | 118° |
| 2026-04-26 04:39 | 2.48738 | 99.81082 | 22055 ft | 426 kts | 118° |
| 2026-04-26 04:39 | 2.47269 | 99.83649 | 22178 ft | 427 kts | 118° |
| 2026-04-26 04:39 | 2.45794 | 99.86225 | 22306 ft | 427 kts | 118° |
| 2026-04-26 04:40 | 2.44317 | 99.88807 | 22421 ft | 428 kts | 118° |
| 2026-04-26 04:40 | 2.42837 | 99.91394 | 22526 ft | 429 kts | 118° |
| 2026-04-26 04:40 | 2.41353 | 99.93987 | 22639 ft | 430 kts | 118° |
| 2026-04-26 04:40 | 2.39868 | 99.96583 | 22763 ft | 430 kts | 118° |
| 2026-04-26 04:41 | 2.38380 | 99.99184 | 22861 ft | 431 kts | 118° |
| 2026-04-26 04:41 | 2.36889 | 100.01790 | 22950 ft | 432 kts | 118° |
| 2026-04-26 04:41 | 2.35396 | 100.04399 | 23063 ft | 433 kts | 118° |
| 2026-04-26 04:41 | 2.33901 | 100.07012 | 23157 ft | 433 kts | 118° |
| 2026-04-26 04:42 | 2.32403 | 100.09630 | 23256 ft | 434 kts | 118° |
| 2026-04-26 04:42 | 2.30907 | 100.12245 | 23358 ft | 434 kts | 118° |
| 2026-04-26 04:42 | 2.29404 | 100.14869 | 23444 ft | 435 kts | 118° |
| 2026-04-26 04:42 | 2.27862 | 100.17477 | 23522 ft | 437 kts | 123° |
| 2026-04-26 04:43 | 2.25854 | 100.19767 | 23558 ft | 440 kts | 133° |
| 2026-04-26 04:43 | 2.23682 | 100.21922 | 23644 ft | 440 kts | 134° |
| 2026-04-26 04:43 | 2.21496 | 100.24068 | 23701 ft | 441 kts | 134° |
| 2026-04-26 04:43 | 2.19310 | 100.26219 | 23763 ft | 441 kts | 134° |
| 2026-04-26 04:44 | 2.17127 | 100.28380 | 23827 ft | 442 kts | 133° |
| 2026-04-26 04:44 | 2.14951 | 100.30548 | 23891 ft | 442 kts | 133° |
| 2026-04-26 04:44 | 2.12780 | 100.32724 | 23946 ft | 442 kts | 133° |
| 2026-04-26 04:44 | 2.10637 | 100.34876 | 24004 ft | 443 kts | 133° |
| 2026-04-26 04:45 | 2.08465 | 100.37064 | 24062 ft | 443 kts | 133° |
| 2026-04-26 04:45 | 2.06293 | 100.39251 | 24123 ft | 444 kts | 133° |
| 2026-04-26 04:45 | 2.04118 | 100.41443 | 24176 ft | 444 kts | 133° |
| 2026-04-26 04:45 | 2.01941 | 100.43636 | 24229 ft | 444 kts | 133° |
| 2026-04-26 04:46 | 1.99766 | 100.45827 | 24278 ft | 445 kts | 133° |
| 2026-04-26 04:46 | 1.97583 | 100.48025 | 24322 ft | 445 kts | 133° |
| 2026-04-26 04:46 | 1.95401 | 100.50222 | 24385 ft | 445 kts | 133° |
| 2026-04-26 04:46 | 1.93218 | 100.52421 | 24437 ft | 446 kts | 133° |
| 2026-04-26 04:47 | 1.91033 | 100.54620 | 24471 ft | 446 kts | 133° |
| 2026-04-26 04:47 | 1.88847 | 100.56821 | 24519 ft | 446 kts | 133° |
| 2026-04-26 04:47 | 1.86658 | 100.59025 | 24569 ft | 447 kts | 133° |
| 2026-04-26 04:47 | 1.84468 | 100.61230 | 24609 ft | 447 kts | 133° |
| 2026-04-26 04:48 | 1.80086 | 100.65640 | 24698 ft | 447 kts | 133° |
| 2026-04-26 04:48 | 1.77892 | 100.67848 | 24744 ft | 448 kts | 133° |
| 2026-04-26 04:48 | 1.75697 | 100.70057 | 24775 ft | 448 kts | 133° |
| 2026-04-26 04:49 | 1.73499 | 100.72270 | 24809 ft | 449 kts | 133° |
| 2026-04-26 04:49 | 1.71299 | 100.74483 | 24849 ft | 449 kts | 133° |
| 2026-04-26 04:49 | 1.69098 | 100.76698 | 24891 ft | 449 kts | 133° |
| 2026-04-26 04:49 | 1.66897 | 100.78914 | 24921 ft | 449 kts | 133° |
| 2026-04-26 04:50 | 1.64693 | 100.81132 | 24960 ft | 449 kts | 133° |
| 2026-04-26 04:50 | 1.62494 | 100.83345 | 24987 ft | 450 kts | 133° |
| 2026-04-26 04:50 | 1.60288 | 100.85565 | 25017 ft | 450 kts | 133° |
| 2026-04-26 04:50 | 1.58081 | 100.87785 | 25045 ft | 450 kts | 133° |
| 2026-04-26 04:51 | 1.55872 | 100.90009 | 25079 ft | 451 kts | 133° |
| 2026-04-26 04:51 | 1.53663 | 100.92231 | 25114 ft | 451 kts | 133° |
| 2026-04-26 04:51 | 1.51454 | 100.94454 | 25139 ft | 451 kts | 133° |
| 2026-04-26 04:51 | 1.49243 | 100.96678 | 25161 ft | 451 kts | 133° |
| 2026-04-26 04:52 | 1.47033 | 100.98901 | 25197 ft | 451 kts | 133° |
| 2026-04-26 04:52 | 1.44821 | 101.01127 | 25224 ft | 451 kts | 133° |
| 2026-04-26 04:52 | 1.42626 | 101.03334 | 25626 ft | 441 kts | 133° |
| 2026-04-26 04:52 | 1.40488 | 101.05483 | 26056 ft | 431 kts | 133° |
| 2026-04-26 04:53 | 1.38404 | 101.07579 | 26507 ft | 421 kts | 134° |
| 2026-04-26 04:53 | 1.36362 | 101.09632 | 26962 ft | 411 kts | 133° |
| 2026-04-26 04:53 | 1.34372 | 101.11633 | 27429 ft | 401 kts | 134° |
| 2026-04-26 04:53 | 1.32426 | 101.13590 | 27901 ft | 391 kts | 134° |
| 2026-04-26 04:54 | 1.30531 | 101.15496 | 28378 ft | 381 kts | 134° |
| 2026-04-26 04:54 | 1.28686 | 101.17353 | 28861 ft | 371 kts | 134° |
| 2026-04-26 04:54 | 1.26897 | 101.19152 | 29354 ft | 360 kts | 134° |
| 2026-04-26 04:54 | 1.25157 | 101.20902 | 29854 ft | 349 kts | 134° |
| 2026-04-26 04:55 | 1.23473 | 101.22595 | 30286 ft | 337 kts | 134° |
| 2026-04-26 04:55 | 1.21853 | 101.24225 | 30679 ft | 325 kts | 134° |
| 2026-04-26 04:55 | 1.18565 | 101.27535 | 30408 ft | 351 kts | 134° |
| 2026-04-26 04:56 | 1.15025 | 101.31099 | 30528 ft | 370 kts | 133° |
| 2026-04-26 04:56 | 1.11305 | 101.34843 | 30658 ft | 388 kts | 133° |
| 2026-04-26 04:57 | 1.07420 | 101.38751 | 30795 ft | 405 kts | 133° |
| 2026-04-26 04:57 | 1.03371 | 101.42822 | 30919 ft | 420 kts | 133° |
| 2026-04-26 04:58 | 0.99177 | 101.47038 | 31029 ft | 435 kts | 133° |
| 2026-04-26 04:58 | 0.94851 | 101.51388 | 31125 ft | 447 kts | 133° |
| 2026-04-26 04:59 | 0.92647 | 101.53603 | 31297 ft | 448 kts | 133° |
| 2026-04-26 04:59 | 0.90463 | 101.55798 | 31720 ft | 444 kts | 133° |
| 2026-04-26 04:59 | 0.88294 | 101.57977 | 32107 ft | 440 kts | 133° |
| 2026-04-26 04:59 | 0.86147 | 101.60134 | 32506 ft | 437 kts | 133° |
| 2026-04-26 05:00 | 0.84014 | 101.62277 | 32915 ft | 433 kts | 133° |
| 2026-04-26 05:00 | 0.81899 | 101.64403 | 33329 ft | 430 kts | 133° |
| 2026-04-26 05:00 | 0.79801 | 101.66513 | 33745 ft | 426 kts | 133° |
| 2026-04-26 05:00 | 0.77721 | 101.68604 | 34129 ft | 422 kts | 133° |
| 2026-04-26 05:01 | 0.75646 | 101.70690 | 34296 ft | 426 kts | 133° |
| 2026-04-26 05:01 | 0.73542 | 101.72807 | 34320 ft | 431 kts | 133° |
| 2026-04-26 05:01 | 0.71426 | 101.74935 | 34533 ft | 431 kts | 133° |
| 2026-04-26 05:01 | 0.69312 | 101.77061 | 34778 ft | 431 kts | 133° |
| 2026-04-26 05:02 | 0.67195 | 101.79188 | 34885 ft | 434 kts | 133° |
| 2026-04-26 05:02 | 0.65063 | 101.81332 | 34886 ft | 437 kts | 133° |
| 2026-04-26 05:02 | 0.60739 | 101.85679 | 34889 ft | 444 kts | 133° |
| 2026-04-26 05:03 | 0.56380 | 101.90061 | 34894 ft | 451 kts | 133° |
| 2026-04-26 05:03 | 0.51934 | 101.94530 | 34892 ft | 457 kts | 133° |
| 2026-04-26 05:04 | 0.47430 | 101.99057 | 34890 ft | 462 kts | 133° |
| 2026-04-26 05:04 | 0.42881 | 102.03630 | 34886 ft | 466 kts | 133° |
| 2026-04-26 05:05 | 0.38306 | 102.08228 | 34888 ft | 468 kts | 134° |
| 2026-04-26 05:05 | 0.33708 | 102.12849 | 34893 ft | 469 kts | 134° |
| 2026-04-26 05:06 | 0.29107 | 102.17473 | 34887 ft | 469 kts | 134° |
| 2026-04-26 05:06 | 0.24511 | 102.22093 | 34887 ft | 468 kts | 134° |
| 2026-04-26 05:07 | 0.19923 | 102.26704 | 34888 ft | 467 kts | 133° |
| 2026-04-26 05:07 | 0.15343 | 102.31307 | 34890 ft | 467 kts | 133° |
| 2026-04-26 05:08 | 0.10768 | 102.35906 | 34890 ft | 466 kts | 133° |
| 2026-04-26 05:08 | 0.06203 | 102.40493 | 34891 ft | 465 kts | 133° |
| 2026-04-26 05:09 | 0.01642 | 102.45078 | 34895 ft | 465 kts | 133° |
| 2026-04-26 05:09 | -0.02919 | 102.49662 | 34899 ft | 464 kts | 134° |
| 2026-04-26 05:10 | -0.07467 | 102.54233 | 34886 ft | 464 kts | 134° |
| 2026-04-26 05:10 | -0.12016 | 102.58805 | 34891 ft | 463 kts | 134° |
| 2026-04-26 05:11 | -0.16558 | 102.63371 | 34890 ft | 463 kts | 134° |
| 2026-04-26 05:11 | -0.21095 | 102.67931 | 34890 ft | 462 kts | 134° |
| 2026-04-26 05:12 | -0.25628 | 102.72487 | 34888 ft | 462 kts | 134° |
| 2026-04-26 05:12 | -0.30157 | 102.77039 | 34888 ft | 462 kts | 134° |
| 2026-04-26 05:13 | -0.34683 | 102.81588 | 34888 ft | 461 kts | 134° |
| 2026-04-26 05:13 | -0.39200 | 102.86129 | 34890 ft | 461 kts | 134° |
| 2026-04-26 05:14 | -0.43721 | 102.90673 | 34892 ft | 461 kts | 134° |
| 2026-04-26 05:14 | -0.47477 | 102.94448 | 34890 ft | 461 kts | 134° |
| 2026-04-26 05:15 | -0.51996 | 102.98991 | 34889 ft | 461 kts | 134° |
| 2026-04-26 05:15 | -0.57279 | 103.04302 | 34890 ft | 461 kts | 134° |
| 2026-04-26 05:16 | -0.61038 | 103.08081 | 34892 ft | 461 kts | 134° |
| 2026-04-26 05:16 | -0.65562 | 103.12628 | 34889 ft | 462 kts | 134° |
| 2026-04-26 05:17 | -0.70092 | 103.17183 | 34894 ft | 462 kts | 134° |
| 2026-04-26 05:17 | -0.74629 | 103.21745 | 34890 ft | 463 kts | 134° |
| 2026-04-26 05:18 | -0.79169 | 103.26309 | 34894 ft | 463 kts | 134° |
| 2026-04-26 05:18 | -0.83717 | 103.30883 | 34896 ft | 464 kts | 134° |
| 2026-04-26 05:19 | -0.88269 | 103.35460 | 34894 ft | 464 kts | 134° |
| 2026-04-26 05:19 | -0.93082 | 103.39769 | 34905 ft | 465 kts | 140° |
| 2026-04-26 05:20 | -0.98143 | 103.43789 | 34898 ft | 465 kts | 141° |
| 2026-04-26 05:20 | -1.03222 | 103.47809 | 34894 ft | 466 kts | 140° |
| 2026-04-26 05:21 | -1.08272 | 103.51864 | 34892 ft | 465 kts | 140° |
| 2026-04-26 05:21 | -1.13302 | 103.55935 | 34891 ft | 465 kts | 140° |
| 2026-04-26 05:22 | -1.18330 | 103.60009 | 34893 ft | 465 kts | 140° |
| 2026-04-26 05:22 | -1.23356 | 103.64080 | 34894 ft | 465 kts | 140° |
| 2026-04-26 05:23 | -1.28382 | 103.68150 | 34890 ft | 465 kts | 140° |
| 2026-04-26 05:23 | -1.33409 | 103.72220 | 34892 ft | 465 kts | 140° |
| 2026-04-26 05:24 | -1.38403 | 103.76263 | 34890 ft | 465 kts | 140° |
| 2026-04-26 05:24 | -1.43431 | 103.80334 | 34889 ft | 465 kts | 140° |
| 2026-04-26 05:25 | -1.48462 | 103.84409 | 34887 ft | 466 kts | 140° |
| 2026-04-26 05:25 | -1.53491 | 103.88482 | 34895 ft | 466 kts | 140° |
| 2026-04-26 05:26 | -1.58531 | 103.92563 | 34889 ft | 467 kts | 140° |
| 2026-04-26 05:26 | -1.63578 | 103.96652 | 34885 ft | 467 kts | 140° |
| 2026-04-26 05:27 | -1.68628 | 104.00743 | 34886 ft | 467 kts | 140° |
| 2026-04-26 05:27 | -1.73682 | 104.04837 | 34886 ft | 468 kts | 140° |
| 2026-04-26 05:28 | -1.78731 | 104.08927 | 34886 ft | 468 kts | 140° |
| 2026-04-26 05:28 | -1.83786 | 104.13024 | 34879 ft | 468 kts | 140° |
| 2026-04-26 05:29 | -1.88841 | 104.17120 | 34884 ft | 468 kts | 140° |
| 2026-04-26 05:29 | -1.93893 | 104.21215 | 34881 ft | 468 kts | 140° |
| 2026-04-26 05:30 | -1.98948 | 104.25309 | 34882 ft | 467 kts | 140° |
| 2026-04-26 05:30 | -2.04004 | 104.29400 | 34882 ft | 467 kts | 140° |
| 2026-04-26 05:31 | -2.09058 | 104.33493 | 34880 ft | 468 kts | 140° |
| 2026-04-26 05:31 | -2.14114 | 104.37587 | 34875 ft | 468 kts | 140° |
| 2026-04-26 05:32 | -2.19166 | 104.41680 | 34876 ft | 468 kts | 140° |
| 2026-04-26 05:32 | -2.24232 | 104.45784 | 34878 ft | 468 kts | 140° |
| 2026-04-26 05:33 | -2.29292 | 104.49883 | 34878 ft | 469 kts | 140° |
| 2026-04-26 05:33 | -2.34364 | 104.53993 | 34871 ft | 469 kts | 140° |
| 2026-04-26 05:34 | -2.38584 | 104.57413 | 34873 ft | 470 kts | 140° |